Time;durP1;ratioP1;P1;durP2;ratioP2;P2;SDS_P1;SDS_P2;PMS_P1;PMS_P2;Temp;Humidity;BMP_temperature;BMP_pressure;BME280_temperature;BME280_humidity;BME280_pressure;Samples;Min_cycle;Max_cycle;Signal;HPM_P1;HPM_P2
2024/03/18 00:00:27;;;;;;;9.27;4.23;;;;;;;5.81;87.90;100430.42;124050;1099;104354;-79
2024/03/18 00:03:20;;;;;;;13.60;4.25;;;;;;;5.72;88.68;100428.23;123783;1099;104595;-80
2024/03/18 00:05:51;;;;;;;9.63;3.83;;;;;;;5.59;88.39;100426.66;123934;1099;104354;-82
2024/03/18 00:08:22;;;;;;;9.95;3.40;;;;;;;5.51;89.17;100427.95;123942;1099;104239;-82
2024/03/18 00:10:54;;;;;;;9.70;3.20;;;;;;;5.39;89.31;100429.08;124125;1099;104222;-80
2024/03/18 00:13:25;;;;;;;9.83;3.30;;;;;;;5.29;89.09;100424.16;124300;1099;102147;-80
2024/03/18 00:15:56;;;;;;;9.53;3.50;;;;;;;5.28;89.17;100435.38;124184;1099;104252;-80
2024/03/18 00:18:27;;;;;;;14.17;3.50;;;;;;;5.23;88.93;100431.62;124036;1099;104344;-84
2024/03/18 00:20:58;;;;;;;8.00;3.60;;;;;;;5.15;88.84;100427.71;124169;1099;104226;-84
2024/03/18 00:23:30;;;;;;;12.70;3.70;;;;;;;5.08;89.46;100425.56;124228;1099;104306;-82
2024/03/18 00:26:02;;;;;;;7.25;3.30;;;;;;;5.00;89.21;100431.24;124173;1099;104360;-85
2024/03/18 00:28:33;;;;;;;6.00;3.50;;;;;;;4.96;89.69;100420.58;124247;1099;104204;-84
2024/03/18 00:31:04;;;;;;;8.57;3.87;;;;;;;4.90;90.58;100415.91;124322;1099;104345;-81
2024/03/18 00:33:35;;;;;;;8.43;3.60;;;;;;;4.89;90.15;100414.11;124186;1099;104261;-80
2024/03/18 00:36:07;;;;;;;6.87;3.20;;;;;;;4.84;90.36;100412.96;124164;1099;104354;-82
2024/03/18 00:38:41;;;;;;;9.13;3.87;;;;;;;4.80;89.92;100408.38;124155;1099;104178;-80
2024/03/18 00:44:09;;;;;;;9.97;3.90;;;;;;;4.68;91.18;100399.08;123988;1099;104377;-83
2024/03/18 00:46:41;;;;;;;7.45;4.00;;;;;;;4.70;91.04;100416.48;124166;1099;104342;-84
2024/03/18 00:49:12;;;;;;;8.93;4.17;;;;;;;4.68;90.15;100416.39;124146;1099;104351;-82
2024/03/18 00:51:44;;;;;;;9.63;4.60;;;;;;;4.71;90.85;100424.37;124336;1099;104233;-83
2024/03/18 00:54:15;;;;;;;9.50;4.90;;;;;;;4.67;90.35;100419.79;124294;1099;104363;-85
2024/03/18 00:56:48;;;;;;;11.25;5.20;;;;;;;4.67;90.89;100417.19;124232;1099;104376;-83
2024/03/18 00:59:21;;;;;;;11.97;5.40;;;;;;;4.65;91.25;100413.62;124212;1099;104166;-83
2024/03/18 01:01:52;;;;;;;11.63;5.20;;;;;;;4.62;91.17;100398.73;123927;1099;104235;-82
2024/03/18 01:04:24;;;;;;;12.53;5.70;;;;;;;4.64;91.06;100394.53;124192;1099;104271;-83
2024/03/18 01:06:57;;;;;;;12.87;6.00;;;;;;;4.65;92.55;100392.82;124217;1099;104350;-82
2024/03/18 01:09:29;;;;;;;14.98;6.72;;;;;;;4.59;92.61;100380.36;123788;1098;104223;-83
2024/03/18 01:12:00;;;;;;;12.83;5.93;;;;;;;4.57;92.62;100371.59;124167;1099;104315;-82
2024/03/18 01:14:31;;;;;;;13.20;6.10;;;;;;;4.61;93.83;100381.36;124315;1099;104392;-85
2024/03/18 01:17:02;;;;;;;12.85;5.80;;;;;;;4.65;92.51;100387.62;124277;1099;104225;-82
2024/03/18 01:19:36;;;;;;;15.63;7.50;;;;;;;4.65;92.37;100390.22;124102;1099;104347;-82
2024/03/18 01:22:07;;;;;;;16.82;7.25;;;;;;;4.66;93.00;100389.42;124224;1099;104171;-83
2024/03/18 01:24:38;;;;;;;15.77;6.87;;;;;;;4.63;92.68;100397.93;124113;1099;104274;-83
2024/03/18 01:27:10;;;;;;;15.63;6.13;;;;;;;4.66;93.31;100390.31;123846;1099;104281;-82
2024/03/18 01:29:42;;;;;;;15.73;6.27;;;;;;;4.65;93.02;100393.70;124291;1099;104184;-82
2024/03/18 01:32:13;;;;;;;16.13;6.93;;;;;;;4.66;92.76;100399.83;123843;1099;104297;-82
2024/03/18 01:34:44;;;;;;;15.23;6.60;;;;;;;4.66;93.37;100394.62;124143;1099;104373;-83
2024/03/18 01:37:15;;;;;;;15.23;6.57;;;;;;;4.65;92.57;100390.22;124169;1099;104405;-83
2024/03/18 01:39:47;;;;;;;15.43;6.87;;;;;;;4.67;92.87;100384.31;124254;1099;104268;-81
2024/03/18 01:42:19;;;;;;;15.07;6.97;;;;;;;4.70;92.71;100385.29;124161;1099;104265;-83
2024/03/18 01:44:56;;;;;;;15.53;7.33;;;;;;;4.69;93.15;100392.20;124187;1099;104312;-84
2024/03/18 01:47:27;;;;;;;15.20;7.00;;;;;;;4.72;93.49;100383.66;123943;1102;104309;-84
2024/03/18 01:49:59;;;;;;;17.23;7.30;;;;;;;4.71;93.73;100377.58;124226;1099;104219;-83
2024/03/18 01:52:31;;;;;;;15.30;6.63;;;;;;;4.70;93.65;100387.89;124512;1099;104255;-85
2024/03/18 01:55:08;;;;;;;16.40;7.90;;;;;;;4.70;93.27;100388.77;124193;1099;104267;-84
2024/03/18 01:57:41;;;;;;;15.60;6.67;;;;;;;4.66;92.94;100392.03;124440;1099;104245;-84
2024/03/18 02:00:15;;;;;;;16.23;7.40;;;;;;;4.67;93.29;100394.71;124238;1099;104281;-82
2024/03/18 02:02:47;;;;;;;16.80;7.40;;;;;;;4.66;93.36;100398.11;124119;1099;104265;-83
2024/03/18 02:05:18;;;;;;;18.27;7.73;;;;;;;4.67;93.43;100401.59;124036;1098;104271;-83
2024/03/18 02:07:49;;;;;;;17.60;7.23;;;;;;;4.70;93.70;100400.88;123887;1099;104610;-82
2024/03/18 02:10:21;;;;;;;17.87;7.67;;;;;;;4.71;94.04;100402.69;124156;1099;104332;-83
2024/03/18 02:12:52;;;;;;;16.85;7.10;;;;;;;4.67;93.56;100402.51;124185;1099;104268;-83
2024/03/18 02:15:23;;;;;;;17.93;8.07;;;;;;;4.66;94.02;100402.42;124316;1099;104740;-83
2024/03/18 02:17:54;;;;;;;15.93;7.03;;;;;;;4.66;94.02;100399.83;124190;1099;104195;-83
2024/03/18 02:20:26;;;;;;;18.80;7.50;;;;;;;4.67;94.86;100389.52;124151;1099;104272;-83
2024/03/18 02:22:57;;;;;;;14.87;7.07;;;;;;;4.61;94.54;100406.44;124167;1099;104304;-82
2024/03/18 02:25:29;;;;;;;12.27;6.03;;;;;;;4.59;95.06;100411.55;124251;1099;104293;-84
2024/03/18 02:28:00;;;;;;;15.47;6.00;;;;;;;4.59;94.75;100403.75;124060;1099;104518;-84
2024/03/18 02:30:31;;;;;;;13.93;5.83;;;;;;;4.56;95.68;100393.17;124155;1099;104328;-82
2024/03/18 02:33:02;;;;;;;14.50;5.93;;;;;;;4.53;95.01;100398.19;124214;1099;104267;-83
2024/03/18 02:35:35;;;;;;;17.20;6.15;;;;;;;4.48;94.62;100405.72;124304;1099;104254;-82
2024/03/18 02:38:06;;;;;;;18.20;6.37;;;;;;;4.48;95.22;100404.83;124158;1099;104169;-81
2024/03/18 02:40:37;;;;;;;14.70;6.60;;;;;;;4.45;95.61;100404.66;124297;1099;104172;-82
2024/03/18 02:43:08;;;;;;;16.00;6.63;;;;;;;4.44;94.87;100405.45;124136;1098;104358;-82
2024/03/18 02:45:39;;;;;;;16.07;6.70;;;;;;;4.42;95.17;100404.47;124547;1099;104270;-81
2024/03/18 02:48:10;;;;;;;16.53;7.23;;;;;;;4.43;95.47;100401.97;124530;1099;104836;-81
2024/03/18 02:50:43;;;;;;;17.60;8.60;;;;;;;4.36;94.74;100397.20;124074;1099;104265;-83
2024/03/18 02:53:14;;;;;;;17.77;7.57;;;;;;;4.36;96.18;100404.11;124591;1099;104316;-82
2024/03/18 02:55:45;;;;;;;14.95;6.60;;;;;;;4.27;95.80;100400.17;124131;1099;104223;-83
2024/03/18 02:58:17;;;;;;;17.40;7.15;;;;;;;4.26;96.11;100406.16;124174;1099;104204;-82
2024/03/18 03:00:49;;;;;;;14.70;6.60;;;;;;;4.22;95.96;100395.50;124583;1098;104421;-83
2024/03/18 03:03:20;;;;;;;15.80;6.73;;;;;;;4.19;96.23;100396.23;124691;1099;104679;-82
2024/03/18 03:05:51;;;;;;;13.97;6.23;;;;;;;4.18;95.63;100394.43;124710;1099;104277;-82
2024/03/18 03:08:24;;;;;;;13.33;5.83;;;;;;;4.17;96.55;100397.82;124705;1099;105634;-83
2024/03/18 03:10:55;;;;;;;13.00;6.20;;;;;;;4.17;96.85;100396.94;124853;1099;104358;-82
2024/03/18 03:13:26;;;;;;;17.40;6.87;;;;;;;4.15;96.63;100391.66;124396;1098;104352;-82
2024/03/18 03:15:58;;;;;;;15.63;6.50;;;;;;;4.16;96.50;100393.45;124268;1099;104268;-81
2024/03/18 03:18:29;;;;;;;15.00;7.20;;;;;;;4.12;95.92;100392.35;124123;1099;104315;-81
2024/03/18 03:21:00;;;;;;;15.17;6.67;;;;;;;4.11;96.27;100407.84;124610;1099;104245;-82
2024/03/18 03:23:31;;;;;;;18.93;7.10;;;;;;;4.11;97.22;100416.55;124766;1098;104242;-82
2024/03/18 03:26:03;;;;;;;17.30;6.50;;;;;;;4.05;96.55;100413.59;124378;1099;104330;-82
2024/03/18 03:28:34;;;;;;;14.00;6.40;;;;;;;4.01;96.39;100415.91;124315;1099;104239;-81
2024/03/18 03:31:08;;;;;;;16.27;6.90;;;;;;;4.00;97.29;100403.72;124342;1099;104357;-82
2024/03/18 03:33:40;;;;;;;14.17;6.73;;;;;;;3.97;97.67;100396.63;124690;1099;104377;-82
2024/03/18 03:36:12;;;;;;;18.97;7.60;;;;;;;3.93;97.51;100392.07;124289;1099;104303;-82
2024/03/18 03:38:43;;;;;;;18.70;7.60;;;;;;;3.89;97.57;100383.17;124215;1099;104367;-81
2024/03/18 03:41:14;;;;;;;23.63;9.70;;;;;;;3.87;97.56;100395.18;124234;1099;104357;-80
2024/03/18 03:43:48;;;;;;;28.33;11.90;;;;;;;3.87;96.79;100392.58;124261;1099;104460;-81
2024/03/18 03:46:19;;;;;;;30.83;11.67;;;;;;;3.88;96.97;100389.20;124243;1098;104245;-81
2024/03/18 03:48:50;;;;;;;23.47;10.47;;;;;;;3.90;96.61;100391.89;124341;1098;104304;-81
2024/03/18 03:51:21;;;;;;;25.97;9.87;;;;;;;3.91;97.07;100388.46;124460;1099;117776;-81
2024/03/18 03:53:53;;;;;;;17.37;7.77;;;;;;;3.92;97.35;100388.55;124239;1099;104383;-81
2024/03/18 03:56:24;;;;;;;20.00;7.77;;;;;;;3.95;96.81;100399.13;124647;1098;104268;-83
2024/03/18 03:58:55;;;;;;;17.67;8.00;;;;;;;3.99;96.91;100404.50;124132;1099;104312;-82
2024/03/18 04:01:26;;;;;;;23.67;9.63;;;;;;;4.01;97.30;100405.52;124188;1099;104256;-81
2024/03/18 04:03:57;;;;;;;21.65;9.20;;;;;;;4.02;97.52;100408.20;123901;1099;104373;-83
2024/03/18 04:06:29;;;;;;;24.03;9.40;;;;;;;4.03;97.54;100406.50;124277;1099;104224;-84
2024/03/18 04:09:00;;;;;;;18.33;8.17;;;;;;;4.02;96.97;100402.09;124253;1099;104245;-81
2024/03/18 04:11:32;;;;;;;22.73;8.70;;;;;;;4.02;97.31;100392.63;123998;1099;104373;-81
2024/03/18 04:14:03;;;;;;;19.60;7.60;;;;;;;4.04;97.53;100392.72;124173;1099;104363;-81
2024/03/18 04:16:34;;;;;;;22.70;8.00;;;;;;;4.03;97.45;100396.99;124148;1099;104195;-82
2024/03/18 04:19:05;;;;;;;17.23;7.33;;;;;;;4.00;97.04;100390.73;124106;1099;104316;-81
2024/03/18 04:21:36;;;;;;;17.83;7.33;;;;;;;4.01;97.47;100390.83;124089;1099;104171;-81
2024/03/18 04:24:08;;;;;;;19.27;7.33;;;;;;;4.01;97.11;100383.03;124123;1099;104241;-81
2024/03/18 04:26:41;;;;;;;19.20;8.47;;;;;;;4.01;96.96;100377.84;124125;1099;104229;-81
2024/03/18 04:29:12;;;;;;;20.70;9.23;;;;;;;4.05;97.12;100377.23;123896;1099;104787;-81
2024/03/18 04:31:43;;;;;;;18.40;8.10;;;;;;;4.06;97.23;100379.00;124042;1099;104438;-81
2024/03/18 04:34:15;;;;;;;22.23;8.87;;;;;;;4.09;96.96;100361.01;124217;1099;104373;-81
2024/03/18 04:36:46;;;;;;;17.27;7.80;;;;;;;4.16;97.69;100374.36;124498;1098;104223;-82
2024/03/18 04:39:17;;;;;;;20.43;8.30;;;;;;;4.19;97.07;100387.52;124296;1099;104299;-82
2024/03/18 04:41:48;;;;;;;19.87;8.00;;;;;;;4.21;96.99;100389.42;124901;1099;104405;-80
2024/03/18 04:44:20;;;;;;;21.77;8.60;;;;;;;4.22;96.68;100390.30;124216;1099;104239;-81
2024/03/18 04:46:51;;;;;;;23.60;10.50;;;;;;;4.26;97.14;100395.77;123789;1099;104360;-82
2024/03/18 04:49:23;;;;;;;22.87;9.97;;;;;;;4.27;97.03;100399.25;124032;1099;104655;-81
2024/03/18 04:51:54;;;;;;;19.57;7.83;;;;;;;4.29;96.74;100408.05;124166;1099;104268;-82
2024/03/18 04:54:27;;;;;;;19.83;8.80;;;;;;;4.31;96.48;100396.93;124334;1099;104181;-81
2024/03/18 04:56:58;;;;;;;21.27;8.43;;;;;;;4.35;97.22;100398.03;124212;1099;104203;-81
2024/03/18 04:59:29;;;;;;;20.50;8.33;;;;;;;4.39;97.47;100399.98;124365;1099;104248;-81
2024/03/18 05:02:00;;;;;;;20.77;8.27;;;;;;;4.41;96.70;100400.07;124234;1099;104367;-81
2024/03/18 05:04:34;;;;;;;21.60;8.37;;;;;;;4.47;96.91;100406.55;123900;1099;104300;-81
2024/03/18 05:07:06;;;;;;;20.60;8.90;;;;;;;4.54;96.93;100399.11;124124;1099;104384;-80
2024/03/18 05:09:37;;;;;;;18.25;8.35;;;;;;;4.59;96.86;100397.66;124048;1099;104325;-80
2024/03/18 05:12:09;;;;;;;18.07;8.80;;;;;;;4.61;96.93;100396.95;124211;1099;104294;-81
2024/03/18 05:14:42;;;;;;;22.03;7.87;;;;;;;4.63;97.17;100400.53;124179;1099;104223;-82
2024/03/18 05:17:14;;;;;;;22.27;8.10;;;;;;;4.61;96.69;100394.36;124316;1098;104271;-81
2024/03/18 05:19:45;;;;;;;19.17;8.23;;;;;;;4.63;96.65;100397.05;124307;1099;104299;-81
2024/03/18 05:22:17;;;;;;;20.37;9.03;;;;;;;4.66;97.09;100399.83;124137;1099;104751;-82
2024/03/18 05:24:48;;;;;;;19.50;8.20;;;;;;;4.66;97.15;100407.63;124249;1099;104269;-83
2024/03/18 05:27:20;;;;;;;21.00;8.90;;;;;;;4.67;97.17;100402.51;124286;1099;104367;-82
2024/03/18 05:29:52;;;;;;;21.93;8.83;;;;;;;4.71;97.32;100411.38;124300;1099;104249;-82
2024/03/18 05:32:23;;;;;;;20.17;8.63;;;;;;;4.73;97.17;100407.14;124496;1099;104201;-80
2024/03/18 05:34:54;;;;;;;21.80;9.33;;;;;;;4.79;97.95;100409.22;124268;1099;104272;-81
2024/03/18 05:37:26;;;;;;;25.33;9.17;;;;;;;4.84;98.14;100413.84;124545;1099;104251;-79
2024/03/18 05:39:57;;;;;;;21.45;8.85;;;;;;;4.93;98.21;100410.89;124595;1099;104198;-82
2024/03/18 05:42:28;;;;;;;24.37;9.50;;;;;;;5.00;98.51;100401.72;124476;1099;104226;-84
2024/03/18 05:45:00;;;;;;;22.27;9.00;;;;;;;5.06;98.20;100404.66;124483;1099;104200;-79
2024/03/18 05:47:31;;;;;;;22.43;9.47;;;;;;;5.13;98.16;100398.12;124414;1098;104261;-79
2024/03/18 05:50:03;;;;;;;22.07;9.10;;;;;;;5.15;98.05;100392.17;124792;1099;104249;-80
2024/03/18 05:52:34;;;;;;;19.93;8.67;;;;;;;5.27;98.47;100406.70;124594;1099;104389;-80
2024/03/18 05:55:07;;;;;;;17.50;8.73;;;;;;;5.32;98.03;100400.03;124486;1099;104242;-80
2024/03/18 05:57:39;;;;;;;25.63;9.97;;;;;;;5.34;98.20;100401.88;124428;1099;104361;-80
2024/03/18 06:00:13;;;;;;;23.80;9.00;;;;;;;5.36;98.05;100402.89;124723;1098;102508;-80
2024/03/18 06:02:45;;;;;;;24.53;9.43;;;;;;;5.35;98.28;100403.69;125130;1099;102061;-81
2024/03/18 06:05:16;;;;;;;23.67;9.30;;;;;;;5.36;97.79;100392.48;124853;1099;104241;-80
2024/03/18 06:07:47;;;;;;;22.33;9.50;;;;;;;5.43;98.12;100392.81;124963;1099;104252;-81
2024/03/18 06:10:19;;;;;;;22.93;10.17;;;;;;;5.52;98.11;100398.52;124694;1098;104271;-80
2024/03/18 06:12:52;;;;;;;24.20;10.80;;;;;;;5.63;98.57;100397.38;124806;1099;104274;-80
2024/03/18 06:15:24;;;;;;;27.98;11.60;;;;;;;5.69;98.01;100389.91;124892;1099;104367;-79
2024/03/18 06:17:55;;;;;;;23.40;10.67;;;;;;;5.70;97.43;100386.50;124781;1099;104240;-80
2024/03/18 06:20:26;;;;;;;25.13;10.07;;;;;;;5.73;97.91;100384.06;124843;1099;104242;-84
2024/03/18 06:22:58;;;;;;;22.47;9.63;;;;;;;5.76;97.96;100380.70;125101;1099;104269;-80
2024/03/18 06:28:19;;;;;;;21.77;8.63;;;;;;;5.82;97.62;100381.03;125127;1099;104245;-79
2024/03/18 06:30:52;;;;;;;22.57;8.73;;;;;;;5.81;97.28;100384.44;124603;1099;104319;-80
2024/03/18 06:33:25;;;;;;;;;;;;;;;5.85;97.51;100378.59;125345;1099;104242;-82
2024/03/18 06:36:02;;;;;;;22.70;7.90;;;;;;;5.94;97.96;100383.39;127041;1099;102564;-81
2024/03/18 06:38:33;;;;;;;20.77;9.23;;;;;;;5.99;97.86;100386.27;125447;1098;104259;-80
2024/03/18 06:41:05;;;;;;;21.30;8.63;;;;;;;6.02;97.55;100386.44;125462;1099;104242;-79
2024/03/18 06:43:36;;;;;;;21.03;8.90;;;;;;;6.04;98.00;100387.40;125064;1099;104268;-79
2024/03/18 06:46:11;;;;;;;19.30;8.40;;;;;;;6.09;97.93;100389.44;125075;1099;102202;-80
2024/03/18 06:48:43;;;;;;;17.87;8.80;;;;;;;6.16;98.04;100384.55;125008;1099;104171;-79
2024/03/18 06:51:17;;;;;;;18.00;8.70;;;;;;;6.23;98.37;100392.77;124924;1099;104159;-80
2024/03/18 06:53:48;;;;;;;20.77;8.57;;;;;;;6.25;98.43;100400.66;124980;1099;103026;-79
2024/03/18 06:56:20;;;;;;;22.07;9.00;;;;;;;6.17;97.86;100387.23;125054;1099;102183;-80
2024/03/18 06:58:51;;;;;;;20.50;8.90;;;;;;;6.17;97.98;100396.73;125466;1099;102045;-79
2024/03/18 07:01:24;;;;;;;19.80;8.70;;;;;;;6.15;98.16;100395.77;125097;1099;104162;-80
2024/03/18 07:03:58;;;;;;;19.13;8.07;;;;;;;6.07;99.21;100396.26;125003;1099;104234;-80
2024/03/18 07:06:29;;;;;;;17.30;7.90;;;;;;;5.94;97.99;100393.81;125155;1099;104227;-81
2024/03/18 07:09:02;;;;;;;20.33;8.23;;;;;;;5.87;98.79;100386.48;125168;1099;104171;-79
2024/03/18 07:11:33;;;;;;;22.47;7.90;;;;;;;5.85;99.13;100390.72;124891;1099;104235;-80
2024/03/18 07:14:05;;;;;;;21.50;8.30;;;;;;;5.88;98.59;100393.48;124818;1099;104242;-79
2024/03/18 07:16:36;;;;;;;23.60;9.43;;;;;;;6.01;98.83;100393.33;125122;1099;104166;-79
2024/03/18 07:19:07;;;;;;;23.57;8.57;;;;;;;6.13;99.04;100392.20;124795;1099;104130;-79
2024/03/18 07:21:42;;;;;;;19.37;8.30;;;;;;;6.16;98.81;100388.03;125072;1099;102157;-79
2024/03/18 07:24:13;;;;;;;21.10;9.07;;;;;;;6.23;98.86;100390.16;125231;1099;104214;-79
2024/03/18 07:26:45;;;;;;;24.10;9.83;;;;;;;6.33;99.49;100394.11;125005;1099;104291;-80
2024/03/18 07:29:17;;;;;;;26.27;10.07;;;;;;;6.39;99.11;100391.82;125103;1099;104255;-78
2024/03/18 07:31:49;;;;;;;24.33;11.03;;;;;;;6.52;99.10;100389.83;125199;1099;104341;-79
2024/03/18 07:34:20;;;;;;;23.67;9.93;;;;;;;6.70;99.37;100388.15;125156;1099;104169;-81
2024/03/18 07:36:55;;;;;;;23.57;10.05;;;;;;;6.89;98.45;100394.23;125064;1099;104171;-80
2024/03/18 07:39:26;;;;;;;21.27;9.80;;;;;;;7.09;99.03;100385.68;125176;1099;104242;-80
2024/03/18 07:41:59;;;;;;;24.17;9.83;;;;;;;7.32;99.58;100386.77;125256;1098;102399;-80
2024/03/18 07:44:33;;;;;;;21.50;9.90;;;;;;;7.52;99.08;100372.00;125236;1099;104226;-79
2024/03/18 07:47:06;;;;;;;21.87;9.50;;;;;;;7.71;98.84;100373.77;124799;1099;102853;-79
2024/03/18 07:49:39;;;;;;;21.37;9.93;;;;;;;7.79;98.75;100362.74;125212;1099;104338;-79
2024/03/18 07:52:10;;;;;;;22.33;9.93;;;;;;;7.87;99.37;100359.66;125111;1099;104178;-79
2024/03/18 07:54:43;;;;;;;20.70;9.03;;;;;;;7.92;98.58;100355.52;125299;1099;104347;-79
2024/03/18 07:57:15;;;;;;;22.63;9.73;;;;;;;7.84;98.83;100353.41;125126;1099;104264;-81
2024/03/18 07:59:46;;;;;;;21.30;9.10;;;;;;;7.77;98.52;100353.95;125116;1099;104226;-80
2024/03/18 08:02:18;;;;;;;21.50;8.80;;;;;;;7.68;97.21;100351.81;124646;1098;103269;-80
2024/03/18 08:04:50;;;;;;;18.80;8.97;;;;;;;7.69;97.00;100364.05;125215;1099;104168;-80
2024/03/18 08:07:23;;;;;;;19.87;9.30;;;;;;;7.69;97.90;100362.33;124961;1099;104169;-82
2024/03/18 08:09:56;;;;;;;22.63;9.20;;;;;;;7.74;98.28;100352.09;125122;1099;104158;-79
2024/03/18 08:12:27;;;;;;;21.10;8.10;;;;;;;7.76;97.18;100360.91;125035;1098;104335;-81
2024/03/18 08:14:59;;;;;;;24.20;8.37;;;;;;;7.83;96.72;100355.11;125169;1099;104223;-81
2024/03/18 08:17:30;;;;;;;18.00;8.23;;;;;;;7.86;97.36;100352.63;125195;1098;104168;-82
2024/03/18 08:20:09;;;;;;;20.23;8.53;;;;;;;7.94;98.19;100357.31;125121;1099;104165;-79
2024/03/18 08:22:43;;;;;;;20.67;7.50;;;;;;;8.04;96.29;100356.88;127050;1098;101764;-79
2024/03/18 08:25:31;;;;;;;17.50;7.53;;;;;;;8.18;94.77;100361.00;125516;1098;102004;-80
2024/03/18 08:28:19;;;;;;;17.10;7.23;;;;;;;8.31;95.81;100346.72;125982;1098;102905;-78
2024/03/18 08:30:50;;;;;;;16.63;7.03;;;;;;;8.32;95.61;100345.91;125375;1098;102571;-79
2024/03/18 08:33:21;;;;;;;17.90;7.33;;;;;;;8.41;96.67;100348.00;125144;1098;103367;-79
2024/03/18 08:35:53;;;;;;;18.30;7.13;;;;;;;8.48;96.90;100357.93;125264;1099;104255;-80
2024/03/18 08:38:24;;;;;;;15.70;6.37;;;;;;;8.44;93.87;100356.00;125270;1099;104210;-80
2024/03/18 08:40:56;;;;;;;13.60;5.85;;;;;;;8.30;93.89;100352.77;125160;1099;104269;-79
2024/03/18 08:43:27;;;;;;;17.37;6.47;;;;;;;8.32;94.04;100350.22;125016;1099;104149;-80
2024/03/18 08:46:01;;;;;;;15.10;5.87;;;;;;;8.41;95.15;100342.77;125395;1099;104377;-79
2024/03/18 08:48:34;;;;;;;14.83;5.60;;;;;;;8.51;94.63;100344.06;125377;1099;104265;-80
2024/03/18 08:51:13;;;;;;;14.07;5.47;;;;;;;8.54;92.73;100334.64;125143;1099;104115;-79
2024/03/18 08:53:52;;;;;;;13.57;5.63;;;;;;;8.59;92.54;100338.33;124352;1098;103597;-78
2024/03/18 08:56:27;;;;;;;15.32;5.80;;;;;;;8.75;93.50;100333.73;124855;1099;104264;-79
2024/03/18 08:58:58;;;;;;;14.80;6.57;;;;;;;8.82;94.58;100341.00;124731;1099;104274;-79
2024/03/18 09:01:31;;;;;;;16.13;6.03;;;;;;;8.74;93.54;100337.16;124414;1099;103437;-80
2024/03/18 09:04:05;;;;;;;12.70;4.97;;;;;;;8.76;92.31;100333.79;124908;1099;104248;-78
2024/03/18 09:06:37;;;;;;;14.83;5.53;;;;;;;8.82;93.55;100322.69;124964;1099;102789;-77
2024/03/18 09:09:11;;;;;;;12.57;5.27;;;;;;;8.88;92.12;100332.48;124795;1099;104444;-80
2024/03/18 09:11:45;;;;;;;15.47;5.33;;;;;;;8.93;91.83;100328.35;125070;1099;105342;-79
2024/03/18 09:14:22;;;;;;;10.30;4.53;;;;;;;8.99;91.72;100329.47;125267;1099;104318;-80
2024/03/18 09:17:01;;;;;;;15.17;5.03;;;;;;;9.10;92.36;100327.28;125090;1099;104165;-81
2024/03/18 09:19:39;;;;;;;14.03;5.10;;;;;;;9.22;92.20;100328.58;125329;1098;104150;-79
2024/03/18 09:22:13;;;;;;;16.67;5.20;;;;;;;9.45;92.44;100330.33;125057;1099;103842;-79
2024/03/18 09:24:47;;;;;;;11.97;5.80;;;;;;;9.76;92.53;100330.59;125158;1099;104252;-78
2024/03/18 09:27:19;;;;;;;19.50;5.03;;;;;;;9.87;90.91;100324.87;124021;1099;104180;-80
2024/03/18 09:29:52;;;;;;;12.10;4.63;;;;;;;9.95;91.00;100326.89;125191;1099;104178;-80
2024/03/18 09:32:24;;;;;;;12.03;4.70;;;;;;;9.95;90.94;100332.13;125229;1098;102834;-80
2024/03/18 09:34:55;;;;;;;13.57;4.20;;;;;;;9.87;89.10;100335.36;125235;1098;104236;-81
2024/03/18 09:37:28;;;;;;;13.00;4.63;;;;;;;9.85;90.85;100329.18;124579;1099;104280;-80
2024/03/18 09:40:00;;;;;;;8.85;4.33;;;;;;;9.84;90.24;100329.13;125182;1098;102642;-79
2024/03/18 09:42:59;;;;;;;8.17;4.20;;;;;;;9.91;89.93;100325.90;124016;1099;103079;-79
2024/03/18 09:45:41;;;;;;;14.80;4.40;;;;;;;9.96;88.65;100324.32;124570;1099;102875;-81
2024/03/18 09:48:18;;;;;;;12.23;4.27;;;;;;;10.02;89.86;100321.91;125201;1099;104176;-80
2024/03/18 09:50:53;;;;;;;10.13;4.00;;;;;;;10.02;88.76;100303.56;125029;1099;104165;-80
2024/03/18 09:53:27;;;;;;;13.90;4.20;;;;;;;10.13;87.86;100308.27;125221;1099;104217;-80
2024/03/18 09:56:03;;;;;;;9.80;4.00;;;;;;;10.21;88.37;100309.45;125307;1099;103030;-80
2024/03/18 09:58:37;;;;;;;13.80;4.80;;;;;;;10.28;87.99;100306.17;125189;1099;104175;-79
2024/03/18 10:01:16;;;;;;;8.43;4.20;;;;;;;10.42;88.06;100310.20;125171;1099;104169;-79
2024/03/18 10:03:51;;;;;;;14.03;4.50;;;;;;;10.50;88.53;100299.05;124745;1098;104226;-80
2024/03/18 10:06:27;;;;;;;10.13;4.10;;;;;;;10.69;87.92;100293.57;124864;1099;104354;-80
2024/03/18 10:09:02;;;;;;;12.03;4.10;;;;;;;10.82;85.12;100294.84;125217;1099;111121;-80
2024/03/18 10:11:34;;;;;;;9.07;3.90;;;;;;;10.72;86.06;100298.92;124765;1099;104239;-79
2024/03/18 10:14:08;;;;;;;11.00;4.37;;;;;;;10.72;84.69;100290.12;124969;1099;102206;-80
2024/03/18 10:16:39;;;;;;;8.00;3.80;;;;;;;10.76;85.54;100292.90;125326;1099;102161;-80
2024/03/18 10:19:19;;;;;;;7.77;3.73;;;;;;;10.76;85.57;100282.41;125314;1099;103174;-80
2024/03/18 10:21:56;;;;;;;11.22;3.98;;;;;;;10.75;84.17;100288.52;125281;1099;104134;-76
2024/03/18 10:24:29;;;;;;;8.77;3.50;;;;;;;10.73;78.88;100295.42;124634;1099;102913;-79
2024/03/18 10:27:01;;;;;;;10.73;3.93;;;;;;;10.73;81.89;100286.67;125005;1099;104185;-79
2024/03/18 10:29:34;;;;;;;11.43;4.03;;;;;;;10.71;81.50;100285.75;125128;1099;104239;-79
2024/03/18 10:32:19;;;;;;;11.33;3.93;;;;;;;10.65;81.28;100281.19;125027;1099;104357;-79
2024/03/18 10:34:53;;;;;;;12.37;4.40;;;;;;;10.67;82.12;100273.36;124834;1099;104248;-79
2024/03/18 10:37:27;;;;;;;9.03;4.03;;;;;;;10.69;81.85;100271.66;125102;1098;104159;-78
2024/03/18 10:40:08;;;;;;;9.77;3.93;;;;;;;10.72;80.25;100267.42;124991;1099;104214;-78
2024/03/18 10:42:47;;;;;;;9.80;4.07;;;;;;;10.76;80.66;100269.28;125168;1099;104232;-78
2024/03/18 10:45:27;;;;;;;8.97;3.97;;;;;;;10.71;80.94;100257.77;125084;1099;104239;-78
2024/03/18 10:48:05;;;;;;;13.77;4.73;;;;;;;10.73;80.41;100258.69;125155;1099;104163;-79
2024/03/18 10:50:37;;;;;;;7.53;3.70;;;;;;;10.73;80.25;100250.81;125109;1099;103944;-78
2024/03/18 10:53:26;;;;;;;10.87;4.20;;;;;;;10.79;78.56;100252.75;125042;1099;104492;-78
2024/03/18 10:55:58;;;;;;;8.83;3.70;;;;;;;10.76;78.60;100248.28;124739;1099;104134;-79
2024/03/18 10:58:36;;;;;;;9.30;4.10;;;;;;;10.74;78.31;100244.73;124996;1099;104238;-78
2024/03/18 11:01:14;;;;;;;9.77;4.07;;;;;;;10.75;78.24;100258.73;125876;1098;103310;-78
2024/03/18 11:03:46;;;;;;;8.37;4.07;;;;;;;10.76;78.08;100244.78;125630;1098;102741;-78
2024/03/18 11:06:18;;;;;;;10.53;3.87;;;;;;;10.81;76.80;100239.67;125079;1098;102782;-77
2024/03/18 11:09:05;;;;;;;9.23;4.20;;;;;;;10.84;76.04;100237.14;125254;1098;102599;-78
2024/03/18 11:11:44;;;;;;;11.83;4.40;;;;;;;10.95;77.24;100230.47;125800;1098;102685;-77
2024/03/18 11:14:31;;;;;;;12.13;4.20;;;;;;;10.94;76.22;100236.59;126015;1098;102597;-80
2024/03/18 11:17:08;;;;;;;9.03;3.93;;;;;;;10.94;75.00;100236.59;127057;1098;102670;-80
2024/03/18 11:19:46;;;;;;;9.30;3.70;;;;;;;10.91;74.44;100236.50;125651;1097;104610;-79
2024/03/18 11:22:21;;;;;;;9.27;4.17;;;;;;;10.89;76.27;100227.66;125295;1098;104335;-80
2024/03/18 11:24:54;;;;;;;9.47;4.13;;;;;;;10.94;72.18;100220.84;125380;1099;104277;-80
2024/03/18 11:27:32;;;;;;;7.47;3.60;;;;;;;11.05;73.83;100223.78;125543;1099;103368;-79
2024/03/18 11:30:26;;;;;;;7.33;3.60;;;;;;;11.08;74.14;100214.25;126661;1099;101927;-79
2024/03/18 11:33:21;;;;;;;6.93;4.07;;;;;;;11.17;74.36;100215.34;126996;1099;102234;-78
2024/03/18 11:35:57;;;;;;;13.97;3.70;;;;;;;11.21;74.43;100214.60;126989;1099;102664;-80
2024/03/18 11:38:29;;;;;;;9.30;3.33;;;;;;;11.25;72.69;100214.73;127119;1098;101793;-79
2024/03/18 11:41:00;;;;;;;7.07;3.40;;;;;;;11.37;72.79;100200.16;125807;1098;111339;-78